createdAt,value
2022-12-14T00:04:42.155Z,-3.43
2022-12-14T00:09:47.148Z,-3.52
2022-12-14T00:14:50.002Z,-3.48
2022-12-14T00:19:52.775Z,-3.54
2022-12-14T00:24:56.903Z,-3.61
2022-12-14T00:30:00.741Z,-3.61
2022-12-14T00:35:03.526Z,-3.69
2022-12-14T00:40:09.787Z,-3.81
2022-12-14T00:45:12.890Z,-3.76
2022-12-14T00:50:15.991Z,-4.00
2022-12-14T00:55:20.144Z,-4.04
2022-12-14T01:00:22.891Z,-4.09
2022-12-14T01:05:25.676Z,-4.15
2022-12-14T01:10:30.111Z,-4.15
2022-12-14T01:15:32.856Z,-4.23
2022-12-14T01:20:35.599Z,-4.18
2022-12-14T01:25:39.682Z,-4.19
2022-12-14T01:30:42.403Z,-4.27
2022-12-14T01:35:45.157Z,-4.24
2022-12-14T01:40:49.252Z,-4.29
2022-12-14T01:45:56.196Z,-4.33
2022-12-14T01:50:58.974Z,-4.20
2022-12-14T01:56:04.868Z,-4.20
2022-12-14T02:01:07.729Z,-4.26
2022-12-14T02:06:15.460Z,-4.42
2022-12-14T02:11:30.734Z,-4.43
2022-12-14T02:16:33.761Z,-4.41
2022-12-14T02:21:53.316Z,-4.48
2022-12-14T02:27:26.904Z,-4.63
2022-12-14T02:32:57.723Z,-4.54
2022-12-14T02:38:09.557Z,-4.54
2022-12-14T02:43:17.356Z,-4.56
2022-12-14T02:48:25.935Z,-4.64
2022-12-14T02:53:35.502Z,-4.71
2022-12-14T02:58:42.291Z,-4.59
2022-12-14T03:03:46.972Z,-4.59
2022-12-14T03:08:49.931Z,-4.84
2022-12-14T03:13:57.295Z,-4.84
2022-12-14T03:19:08.914Z,-4.79
2022-12-14T03:24:14.724Z,-4.79
2022-12-14T03:29:24.176Z,-4.93
2022-12-14T03:34:32.359Z,-4.93
2022-12-14T03:39:37.592Z,-5.06
2022-12-14T03:44:49.097Z,-5.03
2022-12-14T03:50:01.282Z,-5.16
2022-12-14T03:55:12.624Z,-5.07
2022-12-14T04:00:19.858Z,-5.11
2022-12-14T04:05:28.400Z,-5.23
2022-12-14T04:10:54.957Z,-4.87
2022-12-14T04:16:18.576Z,-5.12
2022-12-14T04:21:29.457Z,-5.18
2022-12-14T04:26:38.371Z,-5.28
2022-12-14T04:31:47.045Z,-5.48
2022-12-14T04:36:56.955Z,-5.40
2022-12-14T04:42:03.744Z,-5.23
2022-12-14T04:47:10.700Z,-5.12
2022-12-14T04:52:18.877Z,-5.40
2022-12-14T04:57:26.975Z,-5.34
2022-12-14T05:02:37.407Z,-5.32
2022-12-14T05:07:49.009Z,-5.26
2022-12-14T05:12:59.118Z,-5.28
2022-12-14T05:18:03.798Z,-5.41
2022-12-14T05:23:07.938Z,-5.21
2022-12-14T05:28:11.348Z,-5.21
2022-12-14T05:33:19.575Z,-5.29
2022-12-14T05:38:24.192Z,-5.49
2022-12-14T05:43:27.243Z,-5.32
2022-12-14T05:48:31.129Z,-5.44
2022-12-14T05:53:35.405Z,-5.35
2022-12-14T05:58:38.569Z,-5.60
2022-12-14T06:03:41.346Z,-5.54
2022-12-14T06:08:47.277Z,-5.44
2022-12-14T06:13:50.904Z,-5.51
2022-12-14T06:18:55.199Z,-5.38
2022-12-14T06:24:00.834Z,-5.40
2022-12-14T06:29:04.465Z,-5.53
2022-12-14T06:34:07.279Z,-5.52
2022-12-14T06:39:14.437Z,-5.47
2022-12-14T06:44:17.249Z,-5.62
2022-12-14T06:49:20.125Z,-5.65
2022-12-14T06:54:24.321Z,-5.64
2022-12-14T06:59:27.231Z,-5.49
2022-12-14T07:04:30.172Z,-5.67
2022-12-14T07:09:34.321Z,-5.74
2022-12-14T07:14:37.200Z,-5.52
2022-12-14T07:19:39.966Z,-5.65
2022-12-14T07:24:44.222Z,-5.85
2022-12-14T07:29:47.055Z,-5.72
2022-12-14T07:34:49.807Z,-5.64
2022-12-14T07:39:53.954Z,-5.58
2022-12-14T07:44:56.725Z,-5.47
2022-12-14T07:49:59.443Z,-5.60
2022-12-14T07:55:07.616Z,-5.57
2022-12-14T08:00:11.712Z,-5.60
2022-12-14T08:05:14.539Z,-5.53
2022-12-14T08:10:18.858Z,-5.51
2022-12-14T08:22:02.279Z,-5.54
2022-12-14T08:32:32.470Z,-5.40
2022-12-14T08:37:47.698Z,-5.17
2022-12-14T08:42:52.320Z,-5.24
2022-12-14T08:47:57.932Z,-5.06
2022-12-14T08:53:02.726Z,-4.79
2022-12-14T08:58:07.436Z,-4.93
2022-12-14T09:03:11.798Z,-4.92
2022-12-14T09:08:14.986Z,-4.75
2022-12-14T09:13:19.433Z,-4.93
2022-12-14T09:18:22.242Z,-4.62
2022-12-14T09:23:43.690Z,-4.27
2022-12-14T09:28:49.841Z,-4.25
2022-12-14T09:33:56.898Z,-4.31
2022-12-14T09:38:59.921Z,-3.97
2022-12-14T09:44:18.662Z,-3.95
2022-12-14T09:49:29.036Z,-4.18
2022-12-14T09:54:35.996Z,-4.28
2022-12-14T09:59:40.399Z,-4.39
2022-12-14T10:04:55.462Z,-4.45
2022-12-14T10:10:04.695Z,-4.21
2022-12-14T10:15:21.916Z,-4.18
2022-12-14T10:20:32.179Z,-4.12
2022-12-14T10:25:40.096Z,-4.06
2022-12-14T10:30:45.069Z,-3.86
2022-12-14T10:35:52.773Z,-3.81
2022-12-14T10:41:00.992Z,-3.74
2022-12-14T10:46:18.019Z,-3.69
2022-12-14T10:51:26.489Z,-3.52
2022-12-14T10:56:32.818Z,-3.48
2022-12-14T11:01:37.554Z,-3.48
2022-12-14T11:06:41.171Z,-3.29
2022-12-14T11:11:45.754Z,-3.23
2022-12-14T11:16:56.774Z,-3.18
2022-12-14T11:22:28.197Z,-3.08
2022-12-14T11:27:31.361Z,-2.96
2022-12-14T11:32:36.680Z,-2.82
2022-12-14T11:37:39.588Z,-2.77
2022-12-14T11:42:49.075Z,-2.67
2022-12-14T11:48:11.757Z,-2.66
2022-12-14T11:53:16.456Z,-2.50
2022-12-14T11:58:23.252Z,-2.61
2022-12-14T12:03:31.005Z,-2.57
2022-12-14T12:08:38.131Z,-2.53
2022-12-14T12:13:42.912Z,-2.58
2022-12-14T12:18:50.746Z,-2.45
2022-12-14T12:23:58.953Z,-2.37
2022-12-14T12:29:03.937Z,-2.32
2022-12-14T12:34:15.369Z,-2.15
2022-12-14T12:39:24.824Z,-2.08
2022-12-14T12:44:39.225Z,-2.02
2022-12-14T12:49:43.520Z,-2.05
2022-12-14T12:54:55.440Z,-2.19
2022-12-14T13:00:00.341Z,-2.08
2022-12-14T13:05:43.967Z,-2.24
2022-12-14T13:10:34.441Z,-2.20
2022-12-14T13:15:42.590Z,-2.16
2022-12-14T13:20:46.762Z,-2.07
2022-12-14T13:26:06.841Z,-1.86
2022-12-14T13:31:20.320Z,-1.90
2022-12-14T13:36:39.179Z,-2.08
2022-12-14T13:41:52.561Z,-2.04
2022-12-14T13:47:01.829Z,-2.05
2022-12-14T13:52:07.023Z,-1.99
2022-12-14T13:57:12.996Z,-2.13
2022-12-14T14:02:40.426Z,-2.19
2022-12-14T14:08:01.727Z,-2.19
2022-12-14T14:13:43.896Z,-2.04
2022-12-14T14:18:59.724Z,-1.89
2022-12-14T14:24:20.983Z,-1.97
2022-12-14T14:29:26.022Z,-1.99
2022-12-14T14:34:46.872Z,-1.99
2022-12-14T14:40:10.273Z,-2.22
2022-12-14T14:45:31.724Z,-2.24
2022-12-14T14:50:38.079Z,-2.22
2022-12-14T14:56:01.018Z,-2.22
2022-12-14T15:01:11.179Z,-2.19
2022-12-14T15:06:16.755Z,-2.30
2022-12-14T15:11:24.039Z,-2.53
2022-12-14T15:16:32.191Z,-2.37
2022-12-14T15:21:36.216Z,-2.42
2022-12-14T15:26:40.458Z,-2.55
2022-12-14T15:31:46.140Z,-2.48
2022-12-14T15:36:50.084Z,-2.60
2022-12-14T15:42:03.054Z,-2.63
2022-12-14T15:47:05.956Z,-2.67
2022-12-14T15:52:12.233Z,-2.64
2022-12-14T15:57:20.248Z,-2.70
2022-12-14T16:02:28.046Z,-2.70
2022-12-14T16:07:38.459Z,-2.63
2022-12-14T16:12:46.467Z,-2.58
2022-12-14T16:17:54.815Z,-2.62
2022-12-14T16:23:05.879Z,-2.94
2022-12-14T16:28:28.679Z,-2.96
2022-12-14T16:33:34.292Z,-2.76
2022-12-14T16:38:42.758Z,-2.72
2022-12-14T16:43:55.932Z,-3.03
2022-12-14T16:49:21.498Z,-2.99
2022-12-14T16:54:29.506Z,-3.11
2022-12-14T16:59:41.924Z,-2.87
2022-12-14T17:04:44.735Z,-2.87
2022-12-14T17:09:47.519Z,-3.13
2022-12-14T17:14:52.132Z,-3.06
2022-12-14T17:19:56.575Z,-3.25
2022-12-14T17:25:01.050Z,-3.27
2022-12-14T17:30:06.109Z,-3.07
2022-12-14T17:35:15.975Z,-3.02
2022-12-14T17:40:19.260Z,-3.12
2022-12-14T17:45:25.022Z,-3.27
2022-12-14T17:50:27.948Z,-3.43
2022-12-14T17:55:31.096Z,-3.43
2022-12-14T18:00:52.719Z,-3.51
2022-12-14T18:05:59.724Z,-3.37
2022-12-14T18:11:11.875Z,-3.32
2022-12-14T18:16:23.040Z,-3.48
2022-12-14T18:21:30.466Z,-3.51
2022-12-14T18:26:33.339Z,-3.51
2022-12-14T18:31:38.881Z,-3.38
2022-12-14T18:36:41.893Z,-3.47
2022-12-14T18:41:44.755Z,-3.46
2022-12-14T18:47:41.631Z,-3.50
2022-12-14T18:53:22.356Z,-3.67
2022-12-14T18:58:41.814Z,-3.65
2022-12-14T19:04:02.482Z,-3.53
2022-12-14T19:09:06.853Z,-3.85
2022-12-14T19:14:11.792Z,-3.88
2022-12-14T19:19:19.836Z,-4.21
2022-12-14T19:24:26.716Z,-4.06
2022-12-14T19:29:33.036Z,-4.04
2022-12-14T19:34:39.016Z,-3.95
2022-12-14T19:39:43.372Z,-3.92
2022-12-14T19:45:15.370Z,-4.14
2022-12-14T19:50:39.807Z,-4.34
2022-12-14T19:56:09.472Z,-4.27
2022-12-14T20:01:25.198Z,-4.16
2022-12-14T20:06:34.268Z,-4.26
2022-12-14T20:11:41.831Z,-4.36
2022-12-14T20:16:44.891Z,-4.12
2022-12-14T20:21:51.165Z,-4.19
2022-12-14T20:26:55.582Z,-4.38
2022-12-14T20:31:58.700Z,-4.48
2022-12-14T20:37:01.748Z,-4.48
2022-12-14T20:42:10.999Z,-4.29
2022-12-14T20:53:45.364Z,-3.99
2022-12-14T20:59:00.892Z,-3.83
2022-12-14T21:04:04.207Z,-3.89
2022-12-14T21:09:09.662Z,-4.04
2022-12-14T21:14:14.643Z,-3.91
2022-12-14T21:19:17.592Z,-4.10
2022-12-14T21:24:52.730Z,-4.18
2022-12-14T21:29:45.804Z,-4.32
2022-12-14T21:34:48.939Z,-4.31
2022-12-14T21:39:54.330Z,-4.43
2022-12-14T21:44:59.844Z,-4.60
2022-12-14T21:50:02.567Z,-4.76
2022-12-14T21:55:06.220Z,-4.50
2022-12-14T22:00:14.021Z,-4.55
2022-12-14T22:05:19.388Z,-4.90
2022-12-14T22:10:25.041Z,-4.79
2022-12-14T22:15:29.485Z,-5.00
2022-12-14T22:20:32.363Z,-5.16
2022-12-14T22:25:35.214Z,-5.20
2022-12-14T22:30:39.360Z,-5.24
2022-12-14T22:35:42.338Z,-5.37
2022-12-14T22:40:45.052Z,-5.52
2022-12-14T22:45:49.256Z,-5.46
2022-12-14T22:50:52.141Z,-5.48
2022-12-14T22:55:57.562Z,-5.34
2022-12-14T23:01:01.917Z,-5.66
2022-12-14T23:06:04.929Z,-5.51
2022-12-14T23:11:25.066Z,-5.60
2022-12-14T23:16:50.191Z,-5.55
2022-12-14T23:22:10.428Z,-5.65
2022-12-14T23:27:30.842Z,-5.48
2022-12-14T23:32:52.652Z,-5.62
2022-12-14T23:38:13.237Z,-5.70
2022-12-14T23:43:35.558Z,-5.92
2022-12-14T23:48:57.133Z,-5.78
2022-12-14T23:54:17.552Z,-5.82
2022-12-14T23:59:37.841Z,-5.74
